sensor_id;sensor_type;location;lat;lon;timestamp;pressure;altitude;pressure_sealevel;temperature;humidity
73151;BME280;61354;50.758;6.106;2023-03-15T00:00:47;98872.66;;;0.93;100.00
73151;BME280;61354;50.758;6.106;2023-03-15T00:03:13;98863.66;;;0.93;100.00
73151;BME280;61354;50.758;6.106;2023-03-15T00:05:47;98865.97;;;0.99;100.00
73151;BME280;61354;50.758;6.106;2023-03-15T00:08:14;98869.03;;;0.98;100.00
73151;BME280;61354;50.758;6.106;2023-03-15T00:10:44;98875.72;;;0.92;100.00
73151;BME280;61354;50.758;6.106;2023-03-15T00:13:11;98874.97;;;0.86;100.00
73151;BME280;61354;50.758;6.106;2023-03-15T00:15:44;98865.59;;;0.92;100.00
73151;BME280;61354;50.758;6.106;2023-03-15T00:18:10;98871.06;;;0.92;100.00
73151;BME280;61354;50.758;6.106;2023-03-15T00:20:36;98871.53;;;0.94;100.00
73151;BME280;61354;50.758;6.106;2023-03-15T00:23:02;98870.03;;;1.02;100.00
73151;BME280;61354;50.758;6.106;2023-03-15T00:25:28;98880.78;;;0.98;100.00
73151;BME280;61354;50.758;6.106;2023-03-15T00:27:53;98879.38;;;1.01;100.00
73151;BME280;61354;50.758;6.106;2023-03-15T00:30:19;98876.53;;;1.06;100.00
73151;BME280;61354;50.758;6.106;2023-03-15T00:32:45;98883.34;;;1.09;100.00
73151;BME280;61354;50.758;6.106;2023-03-15T00:35:10;98881.84;;;1.16;100.00
73151;BME280;61354;50.758;6.106;2023-03-15T00:37:37;98874.94;;;1.19;100.00
73151;BME280;61354;50.758;6.106;2023-03-15T00:40:03;98879.00;;;1.21;100.00
73151;BME280;61354;50.758;6.106;2023-03-15T00:42:31;98878.41;;;1.24;100.00
73151;BME280;61354;50.758;6.106;2023-03-15T00:44:58;98878.88;;;1.27;100.00
73151;BME280;61354;50.758;6.106;2023-03-15T00:47:24;98881.63;;;1.27;100.00
73151;BME280;61354;50.758;6.106;2023-03-15T00:49:50;98880.50;;;1.28;100.00
73151;BME280;61354;50.758;6.106;2023-03-15T00:52:16;98871.69;;;1.31;100.00
73151;BME280;61354;50.758;6.106;2023-03-15T00:54:42;98876.56;;;1.34;100.00
73151;BME280;61354;50.758;6.106;2023-03-15T00:57:08;98876.34;;;1.30;100.00
73151;BME280;61354;50.758;6.106;2023-03-15T00:59:34;98868.47;;;1.29;100.00
73151;BME280;61354;50.758;6.106;2023-03-15T01:02:08;98876.78;;;1.37;100.00
73151;BME280;61354;50.758;6.106;2023-03-15T01:04:33;98885.28;;;1.36;100.00
73151;BME280;61354;50.758;6.106;2023-03-15T01:06:59;98889.34;;;1.38;100.00
73151;BME280;61354;50.758;6.106;2023-03-15T01:09:24;98887.50;;;1.34;100.00
73151;BME280;61354;50.758;6.106;2023-03-15T01:11:50;98886.38;;;1.35;100.00
73151;BME280;61354;50.758;6.106;2023-03-15T01:14:16;98886.88;;;1.37;100.00
73151;BME280;61354;50.758;6.106;2023-03-15T01:16:44;98891.34;;;1.33;100.00
73151;BME280;61354;50.758;6.106;2023-03-15T01:19:13;98898.03;;;1.40;100.00
73151;BME280;61354;50.758;6.106;2023-03-15T01:21:38;98896.22;;;1.36;100.00
73151;BME280;61354;50.758;6.106;2023-03-15T01:24:04;98891.75;;;1.40;100.00
73151;BME280;61354;50.758;6.106;2023-03-15T01:26:30;98889.81;;;1.40;100.00
73151;BME280;61354;50.758;6.106;2023-03-15T01:28:56;98886.28;;;1.40;100.00
73151;BME280;61354;50.758;6.106;2023-03-15T01:31:24;98880.81;;;1.40;100.00
73151;BME280;61354;50.758;6.106;2023-03-15T01:33:50;98883.06;;;1.38;100.00
73151;BME280;61354;50.758;6.106;2023-03-15T01:36:16;98902.09;;;1.43;100.00
73151;BME280;61354;50.758;6.106;2023-03-15T01:38:45;98910.41;;;1.38;100.00
73151;BME280;61354;50.758;6.106;2023-03-15T01:41:11;98911.44;;;1.42;100.00
73151;BME280;61354;50.758;6.106;2023-03-15T01:43:38;98928.22;;;1.35;100.00
73151;BME280;61354;50.758;6.106;2023-03-15T01:48:48;98953.09;;;1.06;100.00
73151;BME280;61354;50.758;6.106;2023-03-15T01:54:16;98953.97;;;0.69;100.00
73151;BME280;61354;50.758;6.106;2023-03-15T01:57:10;98953.97;;;0.69;100.00
73151;BME280;61354;50.758;6.106;2023-03-15T01:59:39;98957.91;;;0.44;100.00
73151;BME280;61354;50.758;6.106;2023-03-15T02:02:07;98947.25;;;0.61;100.00
73151;BME280;61354;50.758;6.106;2023-03-15T02:04:38;98941.44;;;0.49;100.00
73151;BME280;61354;50.758;6.106;2023-03-15T02:07:07;98931.63;;;0.48;100.00
73151;BME280;61354;50.758;6.106;2023-03-15T02:09:51;98920.78;;;0.43;100.00
73151;BME280;61354;50.758;6.106;2023-03-15T02:12:18;98925.94;;;0.44;100.00
73151;BME280;61354;50.758;6.106;2023-03-15T02:14:44;98927.78;;;0.49;100.00
73151;BME280;61354;50.758;6.106;2023-03-15T02:17:10;98920.88;;;0.38;100.00
73151;BME280;61354;50.758;6.106;2023-03-15T02:19:56;98921.91;;;0.42;100.00
73151;BME280;61354;50.758;6.106;2023-03-15T02:28:01;98931.75;;;0.57;100.00
73151;BME280;61354;50.758;6.106;2023-03-15T02:30:27;98923.22;;;0.44;100.00
73151;BME280;61354;50.758;6.106;2023-03-15T02:32:53;98927.41;;;0.37;100.00
73151;BME280;61354;50.758;6.106;2023-03-15T02:35:28;98936.38;;;0.42;100.00
73151;BME280;61354;50.758;6.106;2023-03-15T02:37:56;98949.22;;;0.42;100.00
73151;BME280;61354;50.758;6.106;2023-03-15T02:40:23;98948.81;;;0.48;100.00
73151;BME280;61354;50.758;6.106;2023-03-15T02:42:55;98944.84;;;0.41;100.00
73151;BME280;61354;50.758;6.106;2023-03-15T02:45:22;98942.72;;;0.38;100.00
73151;BME280;61354;50.758;6.106;2023-03-15T02:47:49;98936.06;;;0.44;100.00
73151;BME280;61354;50.758;6.106;2023-03-15T02:50:16;98934.16;;;0.77;100.00
73151;BME280;61354;50.758;6.106;2023-03-15T02:52:41;98930.50;;;0.68;100.00
73151;BME280;61354;50.758;6.106;2023-03-15T02:55:07;98931.53;;;0.53;100.00
73151;BME280;61354;50.758;6.106;2023-03-15T02:57:33;98937.09;;;0.48;100.00
73151;BME280;61354;50.758;6.106;2023-03-15T02:59:58;98936.63;;;0.41;100.00
73151;BME280;61354;50.758;6.106;2023-03-15T03:02:32;98938.94;;;0.53;100.00
73151;BME280;61354;50.758;6.106;2023-03-15T03:04:57;98939.50;;;0.49;100.00
73151;BME280;61354;50.758;6.106;2023-03-15T03:07:23;98943.13;;;0.64;100.00
73151;BME280;61354;50.758;6.106;2023-03-15T03:09:48;98942.25;;;0.68;100.00
73151;BME280;61354;50.758;6.106;2023-03-15T03:12:14;98943.13;;;0.64;100.00
73151;BME280;61354;50.758;6.106;2023-03-15T03:14:39;98954.06;;;0.64;100.00
73151;BME280;61354;50.758;6.106;2023-03-15T03:17:07;98960.78;;;0.53;100.00
73151;BME280;61354;50.758;6.106;2023-03-15T03:19:33;98958.94;;;0.48;100.00
73151;BME280;61354;50.758;6.106;2023-03-15T03:21:58;98955.72;;;0.46;100.00
73151;BME280;61354;50.758;6.106;2023-03-15T03:24:24;98946.84;;;0.54;100.00
73151;BME280;61354;50.758;6.106;2023-03-15T03:26:50;98954.50;;;0.52;100.00
73151;BME280;61354;50.758;6.106;2023-03-15T03:29:16;98961.53;;;0.58;100.00
73151;BME280;61354;50.758;6.106;2023-03-15T03:31:43;98959.09;;;0.38;100.00
73151;BME280;61354;50.758;6.106;2023-03-15T03:34:09;98963.81;;;0.51;100.00
73151;BME280;61354;50.758;6.106;2023-03-15T03:36:36;98975.34;;;0.48;100.00
73151;BME280;61354;50.758;6.106;2023-03-15T03:39:02;98975.34;;;0.48;100.00
73151;BME280;61354;50.758;6.106;2023-03-15T03:41:27;98976.22;;;0.62;100.00
73151;BME280;61354;50.758;6.106;2023-03-15T03:43:53;98980.78;;;0.48;100.00
73151;BME280;61354;50.758;6.106;2023-03-15T03:46:18;98987.88;;;0.49;100.00
73151;BME280;61354;50.758;6.106;2023-03-15T03:48:44;98990.69;;;0.44;100.00
73151;BME280;61354;50.758;6.106;2023-03-15T03:51:10;98997.78;;;0.45;100.00
73151;BME280;61354;50.758;6.106;2023-03-15T03:53:36;98990.75;;;0.39;100.00
73151;BME280;61354;50.758;6.106;2023-03-15T03:56:05;99002.19;;;0.41;100.00
73151;BME280;61354;50.758;6.106;2023-03-15T03:58:31;98999.34;;;0.51;100.00
73151;BME280;61354;50.758;6.106;2023-03-15T04:00:57;99003.84;;;0.42;100.00
73151;BME280;61354;50.758;6.106;2023-03-15T04:03:23;99014.31;;;0.35;100.00
73151;BME280;61354;50.758;6.106;2023-03-15T04:05:55;99025.22;;;0.35;100.00
73151;BME280;61354;50.758;6.106;2023-03-15T04:08:23;99025.09;;;0.45;100.00
73151;BME280;61354;50.758;6.106;2023-03-15T04:10:54;99020.72;;;0.44;100.00
73151;BME280;61354;50.758;6.106;2023-03-15T04:13:20;99034.31;;;0.30;100.00
73151;BME280;61354;50.758;6.106;2023-03-15T04:15:46;99035.84;;;0.36;100.00
73151;BME280;61354;50.758;6.106;2023-03-15T04:18:12;99032.53;;;0.39;100.00
73151;BME280;61354;50.758;6.106;2023-03-15T04:20:38;99044.59;;;0.38;100.00
73151;BME280;61354;50.758;6.106;2023-03-15T04:23:04;99053.00;;;0.42;100.00
73151;BME280;61354;50.758;6.106;2023-03-15T04:25:31;99047.47;;;0.47;100.00
73151;BME280;61354;50.758;6.106;2023-03-15T04:27:57;99043.69;;;0.43;100.00
73151;BME280;61354;50.758;6.106;2023-03-15T04:30:28;99053.81;;;0.42;100.00
73151;BME280;61354;50.758;6.106;2023-03-15T04:32:56;99059.06;;;0.39;100.00
73151;BME280;61354;50.758;6.106;2023-03-15T04:35:34;99056.72;;;0.51;100.00
73151;BME280;61354;50.758;6.106;2023-03-15T04:38:00;99064.22;;;0.40;100.00
73151;BME280;61354;50.758;6.106;2023-03-15T04:40:26;99061.06;;;0.52;100.00
73151;BME280;61354;50.758;6.106;2023-03-15T04:42:52;99071.25;;;0.46;100.00
73151;BME280;61354;50.758;6.106;2023-03-15T04:45:22;99069.31;;;0.47;100.00
73151;BME280;61354;50.758;6.106;2023-03-15T04:47:49;99070.00;;;0.58;100.00
73151;BME280;61354;50.758;6.106;2023-03-15T04:50:15;99073.03;;;0.56;100.00
73151;BME280;61354;50.758;6.106;2023-03-15T04:52:40;99067.56;;;0.56;100.00
73151;BME280;61354;50.758;6.106;2023-03-15T04:55:06;99069.19;;;0.57;100.00
73151;BME280;61354;50.758;6.106;2023-03-15T04:57:32;99071.09;;;0.57;100.00
73151;BME280;61354;50.758;6.106;2023-03-15T04:59:57;99065.38;;;0.58;100.00
73151;BME280;61354;50.758;6.106;2023-03-15T05:02:23;99070.97;;;0.67;100.00
73151;BME280;61354;50.758;6.106;2023-03-15T05:04:49;99066.22;;;0.54;100.00
73151;BME280;61354;50.758;6.106;2023-03-15T05:07:14;99063.59;;;0.67;100.00
73151;BME280;61354;50.758;6.106;2023-03-15T05:09:40;99075.25;;;0.73;100.00
73151;BME280;61354;50.758;6.106;2023-03-15T05:12:06;99087.56;;;0.70;100.00
73151;BME280;61354;50.758;6.106;2023-03-15T05:14:32;99084.66;;;0.67;100.00
73151;BME280;61354;50.758;6.106;2023-03-15T05:16:58;99090.53;;;0.74;100.00
73151;BME280;61354;50.758;6.106;2023-03-15T05:19:26;99085.00;;;0.60;100.00
73151;BME280;61354;50.758;6.106;2023-03-15T05:21:51;99097.38;;;0.53;100.00
73151;BME280;61354;50.758;6.106;2023-03-15T05:24:22;99089.50;;;0.51;100.00
73151;BME280;61354;50.758;6.106;2023-03-15T05:26:47;99102.72;;;0.63;100.00
73151;BME280;61354;50.758;6.106;2023-03-15T05:29:13;99112.97;;;0.52;100.00
73151;BME280;61354;50.758;6.106;2023-03-15T05:31:39;99116.22;;;0.54;100.00
73151;BME280;61354;50.758;6.106;2023-03-15T05:34:05;99121.88;;;0.39;100.00
73151;BME280;61354;50.758;6.106;2023-03-15T05:36:32;99129.34;;;0.52;100.00
73151;BME280;61354;50.758;6.106;2023-03-15T05:38:58;99121.88;;;0.39;100.00
73151;BME280;61354;50.758;6.106;2023-03-15T05:41:23;99133.78;;;0.48;100.00
73151;BME280;61354;50.758;6.106;2023-03-15T05:43:50;99130.94;;;0.34;100.00
73151;BME280;61354;50.758;6.106;2023-03-15T05:46:15;99131.13;;;0.43;100.00
73151;BME280;61354;50.758;6.106;2023-03-15T05:48:41;99136.56;;;0.43;100.00
73151;BME280;61354;50.758;6.106;2023-03-15T05:51:07;99132.88;;;0.34;100.00
73151;BME280;61354;50.758;6.106;2023-03-15T05:53:33;99138.03;;;0.35;100.00
73151;BME280;61354;50.758;6.106;2023-03-15T05:55:59;99143.00;;;0.52;100.00
73151;BME280;61354;50.758;6.106;2023-03-15T05:58:25;99144.94;;;0.52;100.00
73151;BME280;61354;50.758;6.106;2023-03-15T06:00:51;99140.84;;;0.49;100.00
73151;BME280;61354;50.758;6.106;2023-03-15T06:03:16;99150.91;;;0.54;100.00
73151;BME280;61354;50.758;6.106;2023-03-15T06:05:42;99149.03;;;0.54;100.00
73151;BME280;61354;50.758;6.106;2023-03-15T06:08:08;99150.06;;;0.58;100.00
73151;BME280;61354;50.758;6.106;2023-03-15T06:10:34;99153.06;;;0.57;100.00
73151;BME280;61354;50.758;6.106;2023-03-15T06:12:59;99164.31;;;0.55;100.00
73151;BME280;61354;50.758;6.106;2023-03-15T06:15:25;99163.66;;;0.63;100.00
73151;BME280;61354;50.758;6.106;2023-03-15T06:17:51;99169.69;;;0.60;100.00
73151;BME280;61354;50.758;6.106;2023-03-15T06:20:17;99169.34;;;0.67;100.00
73151;BME280;61354;50.758;6.106;2023-03-15T06:22:43;99170.75;;;0.64;100.00
73151;BME280;61354;50.758;6.106;2023-03-15T06:25:09;99174.66;;;0.58;100.00
73151;BME280;61354;50.758;6.106;2023-03-15T06:27:35;99179.09;;;0.73;100.00
73151;BME280;61354;50.758;6.106;2023-03-15T06:30:01;99168.59;;;0.61;100.00
73151;BME280;61354;50.758;6.106;2023-03-15T06:32:26;99180.38;;;0.57;100.00
73151;BME280;61354;50.758;6.106;2023-03-15T06:34:52;99193.06;;;0.71;100.00
73151;BME280;61354;50.758;6.106;2023-03-15T06:37:18;99186.34;;;0.83;100.00
73151;BME280;61354;50.758;6.106;2023-03-15T06:39:43;99189.69;;;0.80;100.00
73151;BME280;61354;50.758;6.106;2023-03-15T06:42:10;99192.47;;;0.74;100.00
73151;BME280;61354;50.758;6.106;2023-03-15T06:44:39;99194.06;;;0.81;100.00
73151;BME280;61354;50.758;6.106;2023-03-15T06:47:06;99199.44;;;0.86;100.00
73151;BME280;61354;50.758;6.106;2023-03-15T06:49:32;99205.50;;;0.83;100.00
73151;BME280;61354;50.758;6.106;2023-03-15T06:51:58;99210.38;;;0.86;100.00
73151;BME280;61354;50.758;6.106;2023-03-15T06:54:24;99215.94;;;0.99;100.00
73151;BME280;61354;50.758;6.106;2023-03-15T06:56:49;99216.97;;;0.85;100.00
73151;BME280;61354;50.758;6.106;2023-03-15T06:59:16;99230.72;;;0.98;100.00
73151;BME280;61354;50.758;6.106;2023-03-15T07:01:41;99228.28;;;0.97;100.00
73151;BME280;61354;50.758;6.106;2023-03-15T07:04:07;99232.16;;;0.96;100.00
73151;BME280;61354;50.758;6.106;2023-03-15T07:06:34;99240.84;;;0.98;100.00
73151;BME280;61354;50.758;6.106;2023-03-15T07:09:00;99237.44;;;0.87;100.00
73151;BME280;61354;50.758;6.106;2023-03-15T07:11:26;99252.13;;;1.15;100.00
73151;BME280;61354;50.758;6.106;2023-03-15T07:13:51;99252.88;;;1.21;100.00
73151;BME280;61354;50.758;6.106;2023-03-15T07:16:17;99258.78;;;1.28;100.00
73151;BME280;61354;50.758;6.106;2023-03-15T07:18:43;99259.28;;;1.11;100.00
73151;BME280;61354;50.758;6.106;2023-03-15T07:21:08;99273.09;;;1.01;100.00
73151;BME280;61354;50.758;6.106;2023-03-15T07:23:34;99266.31;;;1.17;100.00
73151;BME280;61354;50.758;6.106;2023-03-15T07:25:59;99264.25;;;1.09;100.00
73151;BME280;61354;50.758;6.106;2023-03-15T07:28:26;99283.38;;;1.09;100.00
73151;BME280;61354;50.758;6.106;2023-03-15T07:30:59;99282.41;;;1.00;100.00
73151;BME280;61354;50.758;6.106;2023-03-15T07:33:27;99289.50;;;1.01;100.00
73151;BME280;61354;50.758;6.106;2023-03-15T07:35:54;99281.69;;;1.13;100.00
73151;BME280;61354;50.758;6.106;2023-03-15T07:38:25;99297.53;;;1.16;100.00
73151;BME280;61354;50.758;6.106;2023-03-15T07:40:51;99296.09;;;1.19;100.00
73151;BME280;61354;50.758;6.106;2023-03-15T07:43:17;99281.13;;;1.16;100.00
73151;BME280;61354;50.758;6.106;2023-03-15T07:45:42;99297.63;;;1.06;100.00
73151;BME280;61354;50.758;6.106;2023-03-15T07:48:08;99297.97;;;1.23;100.00
73151;BME280;61354;50.758;6.106;2023-03-15T07:50:33;99302.94;;;1.21;100.00
73151;BME280;61354;50.758;6.106;2023-03-15T07:52:59;99301.25;;;1.26;100.00
73151;BME280;61354;50.758;6.106;2023-03-15T07:55:25;99310.88;;;1.42;100.00
73151;BME280;61354;50.758;6.106;2023-03-15T07:57:51;99314.25;;;1.34;100.00
73151;BME280;61354;50.758;6.106;2023-03-15T08:00:17;99323.63;;;1.28;100.00
73151;BME280;61354;50.758;6.106;2023-03-15T08:02:43;99329.03;;;1.33;100.00
73151;BME280;61354;50.758;6.106;2023-03-15T08:05:09;99336.38;;;1.37;100.00
73151;BME280;61354;50.758;6.106;2023-03-15T08:07:35;99326.75;;;1.40;100.00
73151;BME280;61354;50.758;6.106;2023-03-15T08:10:02;99351.84;;;1.47;100.00
73151;BME280;61354;50.758;6.106;2023-03-15T08:12:29;99343.34;;;1.48;100.00
73151;BME280;61354;50.758;6.106;2023-03-15T08:14:55;99353.47;;;1.48;100.00
73151;BME280;61354;50.758;6.106;2023-03-15T08:17:21;99350.09;;;1.56;100.00
73151;BME280;61354;50.758;6.106;2023-03-15T08:19:46;99360.81;;;1.53;100.00
73151;BME280;61354;50.758;6.106;2023-03-15T08:22:12;99361.97;;;1.70;100.00
73151;BME280;61354;50.758;6.106;2023-03-15T08:24:37;99359.66;;;1.78;100.00
73151;BME280;61354;50.758;6.106;2023-03-15T08:27:03;99360.69;;;1.63;100.00
73151;BME280;61354;50.758;6.106;2023-03-15T08:29:29;99367.22;;;1.86;100.00
73151;BME280;61354;50.758;6.106;2023-03-15T08:31:55;99370.41;;;1.93;100.00
73151;BME280;61354;50.758;6.106;2023-03-15T08:34:21;99376.03;;;1.83;100.00
73151;BME280;61354;50.758;6.106;2023-03-15T08:36:47;99376.47;;;1.90;100.00
73151;BME280;61354;50.758;6.106;2023-03-15T08:39:13;99391.59;;;2.25;100.00
73151;BME280;61354;50.758;6.106;2023-03-15T08:41:39;99401.44;;;2.26;100.00
73151;BME280;61354;50.758;6.106;2023-03-15T08:44:06;99396.56;;;2.04;100.00
73151;BME280;61354;50.758;6.106;2023-03-15T08:46:32;99398.63;;;2.12;100.00
73151;BME280;61354;50.758;6.106;2023-03-15T08:48:58;99396.63;;;2.18;100.00
73151;BME280;61354;50.758;6.106;2023-03-15T08:51:24;99398.56;;;2.17;100.00
73151;BME280;61354;50.758;6.106;2023-03-15T08:53:51;99396.84;;;2.21;100.00
73151;BME280;61354;50.758;6.106;2023-03-15T08:56:18;99406.25;;;2.15;100.00
73151;BME280;61354;50.758;6.106;2023-03-15T08:58:44;99408.63;;;2.22;100.00
73151;BME280;61354;50.758;6.106;2023-03-15T09:01:11;99409.06;;;2.10;100.00
73151;BME280;61354;50.758;6.106;2023-03-15T09:03:37;99406.69;;;2.22;100.00
73151;BME280;61354;50.758;6.106;2023-03-15T09:06:02;99412.97;;;2.23;100.00
73151;BME280;61354;50.758;6.106;2023-03-15T09:08:28;99418.59;;;2.32;100.00
73151;BME280;61354;50.758;6.106;2023-03-15T09:10:55;99426.91;;;2.27;100.00
73151;BME280;61354;50.758;6.106;2023-03-15T09:13:20;99420.25;;;2.33;100.00
73151;BME280;61354;50.758;6.106;2023-03-15T09:15:49;99427.38;;;2.34;100.00
73151;BME280;61354;50.758;6.106;2023-03-15T09:18:15;99430.03;;;2.58;100.00
73151;BME280;61354;50.758;6.106;2023-03-15T09:20:41;99437.94;;;2.59;100.00
73151;BME280;61354;50.758;6.106;2023-03-15T09:23:06;99434.91;;;2.42;100.00
73151;BME280;61354;50.758;6.106;2023-03-15T09:25:32;99439.56;;;2.60;100.00
73151;BME280;61354;50.758;6.106;2023-03-15T09:27:58;99437.75;;;2.69;100.00
73151;BME280;61354;50.758;6.106;2023-03-15T09:30:23;99440.19;;;2.57;100.00
73151;BME280;61354;50.758;6.106;2023-03-15T09:32:49;99440.81;;;2.68;100.00
73151;BME280;61354;50.758;6.106;2023-03-15T09:35:18;99454.84;;;2.66;100.00
73151;BME280;61354;50.758;6.106;2023-03-15T09:37:44;99454.69;;;2.58;100.00
73151;BME280;61354;50.758;6.106;2023-03-15T09:48:33;99459.34;;;2.76;100.00
73151;BME280;61354;50.758;6.106;2023-03-15T09:51:09;99463.16;;;2.61;100.00
73151;BME280;61354;50.758;6.106;2023-03-15T09:56:34;99458.63;;;3.03;100.00
73151;BME280;61354;50.758;6.106;2023-03-15T09:59:01;99459.34;;;3.09;100.00
73151;BME280;61354;50.758;6.106;2023-03-15T10:01:38;99458.44;;;3.13;100.00
73151;BME280;61354;50.758;6.106;2023-03-15T10:04:11;99450.25;;;2.94;99.54
73151;BME280;61354;50.758;6.106;2023-03-15T10:06:42;99452.53;;;3.06;97.50
73151;BME280;61354;50.758;6.106;2023-03-15T10:09:15;99444.97;;;2.98;95.63
73151;BME280;61354;50.758;6.106;2023-03-15T10:12:03;99433.88;;;3.22;99.10
73151;BME280;61354;50.758;6.106;2023-03-15T10:17:13;99447.13;;;3.47;94.15
73151;BME280;61354;50.758;6.106;2023-03-15T10:19:55;99443.06;;;3.72;93.18
73151;BME280;61354;50.758;6.106;2023-03-15T10:27:56;99441.28;;;4.32;97.51
73151;BME280;61354;50.758;6.106;2023-03-15T10:30:26;99447.19;;;4.25;92.00
73151;BME280;61354;50.758;6.106;2023-03-15T10:32:58;99452.22;;;4.09;89.74
73151;BME280;61354;50.758;6.106;2023-03-15T10:35:24;99445.31;;;4.12;87.40
73151;BME280;61354;50.758;6.106;2023-03-15T10:37:50;99438.56;;;4.18;89.51
73151;BME280;61354;50.758;6.106;2023-03-15T10:40:43;99438.53;;;4.32;90.41
73151;BME280;61354;50.758;6.106;2023-03-15T10:43:30;99437.22;;;4.65;92.54
73151;BME280;61354;50.758;6.106;2023-03-15T10:48:33;99438.78;;;4.58;88.14
73151;BME280;61354;50.758;6.106;2023-03-15T10:51:18;99444.81;;;4.68;83.88
73151;BME280;61354;50.758;6.106;2023-03-15T10:53:59;99438.28;;;4.78;86.11
73151;BME280;61354;50.758;6.106;2023-03-15T10:56:29;99436.97;;;4.76;83.42
73151;BME280;61354;50.758;6.106;2023-03-15T10:58:57;99447.06;;;4.44;78.79
73151;BME280;61354;50.758;6.106;2023-03-15T11:01:31;99449.50;;;4.45;74.95
73151;BME280;61354;50.758;6.106;2023-03-15T11:04:14;99452.75;;;4.47;78.60
73151;BME280;61354;50.758;6.106;2023-03-15T11:06:49;99461.19;;;4.15;76.83
73151;BME280;61354;50.758;6.106;2023-03-15T11:09:20;99470.28;;;4.38;77.76
73151;BME280;61354;50.758;6.106;2023-03-15T11:12:01;99466.34;;;4.66;78.35
73151;BME280;61354;50.758;6.106;2023-03-15T11:14:45;99472.97;;;4.15;72.93
73151;BME280;61354;50.758;6.106;2023-03-15T11:17:32;99465.81;;;4.64;78.64
73151;BME280;61354;50.758;6.106;2023-03-15T11:22:24;99471.88;;;5.11;81.75
73151;BME280;61354;50.758;6.106;2023-03-15T11:24:51;99471.88;;;5.11;79.90
73151;BME280;61354;50.758;6.106;2023-03-15T11:27:21;99467.25;;;4.98;84.28
73151;BME280;61354;50.758;6.106;2023-03-15T11:29:51;99471.00;;;5.02;86.39
73151;BME280;61354;50.758;6.106;2023-03-15T11:32:25;99486.81;;;4.96;86.41
73151;BME280;61354;50.758;6.106;2023-03-15T11:35:09;99484.78;;;5.02;82.37
73151;BME280;61354;50.758;6.106;2023-03-15T11:37:46;99485.88;;;5.23;82.61
73151;BME280;61354;50.758;6.106;2023-03-15T11:40:22;99492.81;;;5.43;84.11
73151;BME280;61354;50.758;6.106;2023-03-15T11:45:35;99478.66;;;5.67;81.00
73151;BME280;61354;50.758;6.106;2023-03-15T11:48:13;99498.09;;;5.62;81.83
73151;BME280;61354;50.758;6.106;2023-03-15T11:50:43;99496.88;;;5.46;79.32
73151;BME280;61354;50.758;6.106;2023-03-15T11:53:12;99504.13;;;5.64;84.50
73151;BME280;61354;50.758;6.106;2023-03-15T11:55:40;99500.00;;;5.53;84.38
73151;BME280;61354;50.758;6.106;2023-03-15T11:58:31;99498.25;;;5.35;86.11
73151;BME280;61354;50.758;6.106;2023-03-15T12:01:04;99489.88;;;5.17;86.52
73151;BME280;61354;50.758;6.106;2023-03-15T12:03:41;99491.75;;;5.08;85.38
73151;BME280;61354;50.758;6.106;2023-03-15T12:08:55;99497.19;;;4.99;85.52
73151;BME280;61354;50.758;6.106;2023-03-15T12:19:39;99499.78;;;5.18;77.44
73151;BME280;61354;50.758;6.106;2023-03-15T12:21:52;99499.31;;;5.25;75.13
73151;BME280;61354;50.758;6.106;2023-03-15T12:24:35;99495.84;;;5.64;80.06
73151;BME280;61354;50.758;6.106;2023-03-15T12:27:05;99504.53;;;5.89;77.93
73151;BME280;61354;50.758;6.106;2023-03-15T12:29:38;99491.13;;;5.96;74.01
73151;BME280;61354;50.758;6.106;2023-03-15T12:32:10;99489.88;;;5.40;70.70
73151;BME280;61354;50.758;6.106;2023-03-15T12:34:48;99483.50;;;5.62;75.90
73151;BME280;61354;50.758;6.106;2023-03-15T12:37:41;99486.81;;;5.72;72.58
73151;BME280;61354;50.758;6.106;2023-03-15T12:53:16;99479.03;;;5.74;74.28
73151;BME280;61354;50.758;6.106;2023-03-15T12:55:43;99475.44;;;5.65;75.65
73151;BME280;61354;50.758;6.106;2023-03-15T12:58:11;99477.41;;;5.73;74.26
73151;BME280;61354;50.758;6.106;2023-03-15T13:00:38;99478.50;;;5.95;76.20
73151;BME280;61354;50.758;6.106;2023-03-15T13:03:10;99472.34;;;5.98;75.00
73151;BME280;61354;50.758;6.106;2023-03-15T13:08:23;99480.63;;;5.98;73.37
73151;BME280;61354;50.758;6.106;2023-03-15T13:19:41;99472.59;;;5.88;74.71
73151;BME280;61354;50.758;6.106;2023-03-15T13:25:08;99467.56;;;5.81;72.77
73151;BME280;61354;50.758;6.106;2023-03-15T13:27:55;99473.44;;;5.57;68.95
73151;BME280;61354;50.758;6.106;2023-03-15T13:33:27;99477.56;;;5.68;69.91
73151;BME280;61354;50.758;6.106;2023-03-15T13:38:43;99478.66;;;5.67;67.60
73151;BME280;61354;50.758;6.106;2023-03-15T13:43:47;99476.34;;;5.52;64.62
73151;BME280;61354;50.758;6.106;2023-03-15T13:46:14;99472.63;;;5.57;66.18
73151;BME280;61354;50.758;6.106;2023-03-15T13:48:46;99473.53;;;5.74;70.97
73151;BME280;61354;50.758;6.106;2023-03-15T13:51:45;99477.03;;;5.66;68.15
73151;BME280;61354;50.758;6.106;2023-03-15T14:02:53;99482.81;;;5.87;68.46
73151;BME280;61354;50.758;6.106;2023-03-15T14:08:23;99493.66;;;6.15;70.19
73151;BME280;61354;50.758;6.106;2023-03-15T14:11:09;99493.13;;;6.04;68.49
73151;BME280;61354;50.758;6.106;2023-03-15T14:13:51;99491.50;;;6.03;68.89
73151;BME280;61354;50.758;6.106;2023-03-15T14:16:32;99493.63;;;6.06;71.94
73151;BME280;61354;50.758;6.106;2023-03-15T14:19:16;99491.97;;;6.05;67.42
73151;BME280;61354;50.758;6.106;2023-03-15T14:21:57;99484.06;;;6.12;67.10
73151;BME280;61354;50.758;6.106;2023-03-15T14:24:45;99489.88;;;6.02;65.49
73151;BME280;61354;50.758;6.106;2023-03-15T14:27:21;99482.28;;;6.16;68.17
73151;BME280;61354;50.758;6.106;2023-03-15T14:29:58;99488.16;;;6.23;63.65
73151;BME280;61354;50.758;6.106;2023-03-15T14:32:52;99477.59;;;6.17;64.48
73151;BME280;61354;50.758;6.106;2023-03-15T14:35:45;99487.38;;;6.32;67.75
73151;BME280;61354;50.758;6.106;2023-03-15T14:38:18;99487.16;;;6.19;65.48
73151;BME280;61354;50.758;6.106;2023-03-15T14:40:46;99484.56;;;6.14;63.85
73151;BME280;61354;50.758;6.106;2023-03-15T14:43:12;99484.75;;;6.18;64.89
73151;BME280;61354;50.758;6.106;2023-03-15T14:45:40;99488.44;;;6.13;65.77
73151;BME280;61354;50.758;6.106;2023-03-15T14:50:43;99503.72;;;6.28;67.67